createdAt,value
2018-09-09T00:01:01.520Z,7.65
2018-09-09T00:03:30.119Z,11.22
2018-09-09T00:05:58.666Z,9.33
2018-09-09T00:08:27.212Z,11.15
2018-09-09T00:10:55.775Z,13.95
2018-09-09T00:13:24.315Z,15.38
2018-09-09T00:15:52.925Z,15.32
2018-09-09T00:18:21.475Z,18.50
2018-09-09T00:20:50.126Z,15.20
2018-09-09T00:23:18.640Z,18.17
2018-09-09T00:25:47.277Z,15.45
2018-09-09T00:28:15.837Z,23.65
2018-09-09T00:30:44.409Z,22.25
2018-09-09T00:33:12.952Z,18.35
2018-09-09T00:35:41.486Z,15.80
2018-09-09T00:38:10.268Z,12.47
2018-09-09T00:40:38.877Z,15.10
2018-09-09T00:43:07.434Z,14.50
2018-09-09T00:45:35.984Z,14.75
2018-09-09T00:48:04.522Z,15.72
2018-09-09T00:50:38.225Z,14.78
2018-09-09T00:53:12.453Z,13.90
2018-09-09T00:55:41.053Z,13.75
2018-09-09T00:58:09.615Z,16.50
2018-09-09T01:00:43.460Z,16.02
2018-09-09T01:03:12.001Z,16.57
2018-09-09T01:05:40.593Z,14.60
2018-09-09T01:08:09.120Z,14.03
2018-09-09T01:10:37.674Z,15.55
2018-09-09T01:13:06.579Z,18.42
2018-09-09T01:15:35.132Z,13.43
2018-09-09T01:18:03.673Z,12.25
2018-09-09T01:20:32.474Z,16.52
2018-09-09T01:23:01.013Z,15.65
2018-09-09T01:25:29.534Z,13.35
2018-09-09T01:27:58.087Z,16.07
2018-09-09T01:30:26.641Z,12.30
2018-09-09T01:32:55.179Z,20.32
2018-09-09T01:35:23.718Z,10.03
2018-09-09T01:37:52.281Z,13.45
2018-09-09T01:40:20.808Z,13.13
2018-09-09T01:42:49.357Z,16.20
2018-09-09T01:45:17.888Z,13.08
2018-09-09T01:47:46.392Z,11.40
2018-09-09T01:50:14.933Z,15.30
2018-09-09T01:52:43.451Z,11.28
2018-09-09T01:55:12.033Z,13.15
2018-09-09T01:57:40.617Z,11.93
2018-09-09T02:00:09.181Z,9.00
2018-09-09T02:02:37.782Z,11.18
2018-09-09T02:05:06.394Z,14.78
2018-09-09T02:07:34.909Z,14.58
2018-09-09T02:10:03.469Z,15.03
2018-09-09T02:12:32.015Z,9.78
2018-09-09T02:15:00.581Z,11.22
2018-09-09T02:17:29.100Z,20.17
2018-09-09T02:19:57.639Z,12.98
2018-09-09T02:22:26.176Z,13.98
2018-09-09T02:24:54.708Z,11.45
2018-09-09T02:27:23.194Z,9.55
2018-09-09T02:29:51.758Z,10.60
2018-09-09T02:32:20.329Z,9.65
2018-09-09T02:34:48.874Z,10.25
2018-09-09T02:37:17.424Z,9.85
2018-09-09T02:39:45.989Z,10.45
2018-09-09T02:42:14.525Z,8.48
2018-09-09T02:44:43.092Z,9.30
2018-09-09T02:47:11.677Z,9.95
2018-09-09T02:49:40.218Z,10.68
2018-09-09T02:52:08.732Z,9.48
2018-09-09T02:54:37.288Z,9.60
2018-09-09T02:57:05.791Z,8.45
2018-09-09T02:59:34.358Z,9.80
2018-09-09T03:02:02.887Z,8.48
2018-09-09T03:04:31.477Z,11.48
2018-09-09T03:07:00.048Z,9.75
2018-09-09T03:09:28.597Z,12.10
2018-09-09T03:11:57.154Z,10.82
2018-09-09T03:14:25.703Z,10.58
2018-09-09T03:16:54.296Z,8.48
2018-09-09T03:19:22.820Z,8.18
2018-09-09T03:21:51.347Z,7.90
2018-09-09T03:24:19.892Z,7.70
2018-09-09T03:26:48.411Z,8.20
2018-09-09T03:29:16.956Z,11.93
2018-09-09T03:31:45.525Z,7.60
2018-09-09T03:34:14.039Z,9.03
2018-09-09T03:36:42.619Z,8.95
2018-09-09T03:39:11.128Z,7.65
2018-09-09T03:41:39.650Z,11.83
2018-09-09T03:44:08.182Z,10.70
2018-09-09T03:46:36.724Z,9.55
2018-09-09T03:49:05.338Z,7.37
2018-09-09T03:51:33.905Z,8.58
2018-09-09T03:54:02.449Z,8.98
2018-09-09T03:56:30.970Z,13.70
2018-09-09T03:58:59.726Z,7.90
2018-09-09T04:01:28.301Z,10.18
2018-09-09T04:03:56.915Z,7.95
2018-09-09T04:06:25.832Z,11.45
2018-09-09T04:08:54.431Z,7.85
2018-09-09T04:11:22.935Z,7.10
2018-09-09T04:13:51.539Z,9.20
2018-09-09T04:16:20.064Z,8.93
2018-09-09T04:18:48.624Z,7.12
2018-09-09T04:21:17.208Z,7.00
2018-09-09T04:23:45.769Z,8.33
2018-09-09T04:26:14.301Z,6.72
2018-09-09T04:28:42.821Z,7.45
2018-09-09T04:31:11.391Z,9.55
2018-09-09T04:33:39.910Z,10.32
2018-09-09T04:36:09.586Z,8.90
2018-09-09T04:38:38.157Z,9.20
2018-09-09T04:41:06.705Z,10.15
2018-09-09T04:43:35.223Z,11.60
2018-09-09T04:46:03.841Z,8.83
2018-09-09T04:48:32.346Z,7.80
2018-09-09T04:51:00.856Z,7.53
2018-09-09T04:53:29.356Z,8.10
2018-09-09T04:55:57.914Z,7.87
2018-09-09T04:58:26.462Z,7.80
2018-09-09T05:00:54.989Z,7.85
2018-09-09T05:03:23.522Z,8.33
2018-09-09T05:05:52.056Z,8.95
2018-09-09T05:08:20.634Z,7.90
2018-09-09T05:10:49.315Z,10.72
2018-09-09T05:13:17.870Z,10.45
2018-09-09T05:15:46.384Z,16.27
2018-09-09T05:18:14.906Z,7.62
2018-09-09T05:20:43.440Z,7.47
2018-09-09T05:23:12.000Z,7.20
2018-09-09T05:25:40.526Z,9.78
2018-09-09T05:28:09.054Z,7.20
2018-09-09T05:30:37.604Z,10.63
2018-09-09T05:33:06.172Z,7.42
2018-09-09T05:35:34.746Z,8.05
2018-09-09T05:38:03.278Z,10.40
2018-09-09T05:40:31.850Z,6.80
2018-09-09T05:43:00.436Z,8.53
2018-09-09T05:45:28.956Z,7.40
2018-09-09T05:47:57.494Z,8.80
2018-09-09T05:50:26.062Z,9.00
2018-09-09T05:52:54.633Z,7.42
2018-09-09T05:55:23.171Z,10.55
2018-09-09T05:57:51.775Z,7.80
2018-09-09T06:00:20.346Z,9.45
2018-09-09T06:02:48.954Z,8.43
2018-09-09T06:05:17.527Z,8.23
2018-09-09T06:07:46.109Z,10.35
2018-09-09T06:10:14.760Z,7.53
2018-09-09T06:12:43.335Z,10.00
2018-09-09T06:15:11.893Z,6.90
2018-09-09T06:17:40.473Z,13.03
2018-09-09T06:20:09.069Z,9.20
2018-09-09T06:22:37.769Z,14.60
2018-09-09T06:25:06.496Z,7.28
2018-09-09T06:27:35.043Z,7.03
2018-09-09T06:30:03.604Z,9.83
2018-09-09T06:32:32.158Z,6.90
2018-09-09T06:35:01.698Z,6.97
2018-09-09T06:37:30.273Z,7.33
2018-09-09T06:39:58.839Z,6.47
2018-09-09T06:42:27.380Z,12.95
2018-09-09T06:44:55.915Z,7.17
2018-09-09T06:47:24.467Z,11.28
2018-09-09T06:49:53.005Z,13.13
2018-09-09T06:52:21.532Z,8.23
2018-09-09T06:54:50.073Z,8.88
2018-09-09T06:57:18.637Z,6.50
2018-09-09T06:59:47.186Z,8.40
2018-09-09T07:02:15.795Z,10.18
2018-09-09T07:04:44.282Z,7.25
2018-09-09T07:07:12.836Z,7.33
2018-09-09T07:09:41.426Z,7.37
2018-09-09T07:12:10.074Z,9.55
2018-09-09T07:14:38.560Z,7.17
2018-09-09T07:17:07.434Z,8.53
2018-09-09T07:19:35.911Z,7.47
2018-09-09T07:22:04.456Z,9.65
2018-09-09T07:24:33.062Z,5.85
2018-09-09T07:27:01.611Z,5.72
2018-09-09T07:29:30.198Z,12.60
2018-09-09T07:31:58.735Z,9.35
2018-09-09T07:34:27.237Z,10.38
2018-09-09T07:36:55.766Z,13.43
2018-09-09T07:39:24.319Z,6.67
2018-09-09T07:41:52.850Z,5.78
2018-09-09T07:44:21.439Z,6.58
2018-09-09T07:46:49.995Z,11.83
2018-09-09T07:49:18.528Z,7.95
2018-09-09T07:51:47.053Z,8.60
2018-09-09T07:54:15.630Z,7.97
2018-09-09T07:56:44.212Z,7.42
2018-09-09T07:59:12.831Z,9.93
2018-09-09T08:01:41.384Z,9.58
2018-09-09T08:04:09.979Z,5.85
2018-09-09T08:06:38.527Z,5.28
2018-09-09T08:09:08.463Z,8.35
2018-09-09T08:11:37.574Z,6.12
2018-09-09T08:14:07.265Z,5.58
2018-09-09T08:16:36.035Z,5.67
2018-09-09T08:19:04.925Z,7.78
2018-09-09T08:21:34.349Z,4.95
2018-09-09T08:24:02.901Z,6.17
2018-09-09T08:26:31.524Z,4.60
2018-09-09T08:29:00.090Z,7.15
2018-09-09T08:31:28.626Z,7.78
2018-09-09T08:33:57.283Z,5.53
2018-09-09T08:36:25.838Z,8.10
2018-09-09T08:38:54.465Z,6.53
2018-09-09T08:41:23.030Z,4.72
2018-09-09T08:43:51.609Z,6.35
2018-09-09T08:46:20.176Z,6.22
2018-09-09T08:48:48.753Z,7.00
2018-09-09T08:51:17.354Z,5.40
2018-09-09T08:53:45.922Z,5.22
2018-09-09T08:56:14.496Z,4.12
2018-09-09T08:58:43.101Z,9.10
2018-09-09T09:01:11.665Z,4.17
2018-09-09T09:03:40.264Z,3.20
2018-09-09T09:06:08.795Z,5.37
2018-09-09T09:08:37.320Z,5.77
2018-09-09T09:11:06.066Z,5.33
2018-09-09T09:13:34.648Z,2.70
2018-09-09T09:16:03.210Z,4.10
2018-09-09T09:18:31.784Z,4.27
2018-09-09T09:21:00.302Z,4.60
2018-09-09T09:23:28.825Z,4.17
2018-09-09T09:25:57.427Z,3.97
2018-09-09T09:28:25.989Z,3.20
2018-09-09T09:30:54.634Z,3.30
2018-09-09T09:33:23.360Z,4.50
2018-09-09T09:35:54.017Z,5.23
2018-09-09T09:38:23.160Z,13.20
2018-09-09T09:40:52.341Z,2.70
2018-09-09T09:43:20.898Z,3.03
2018-09-09T09:45:49.420Z,2.87
2018-09-09T09:48:17.926Z,3.40
2018-09-09T09:50:46.562Z,4.30
2018-09-09T09:53:15.126Z,4.63
2018-09-09T09:55:43.674Z,5.10
2018-09-09T09:58:12.330Z,5.23
2018-09-09T10:00:46.297Z,5.17
2018-09-09T10:03:14.919Z,2.73
2018-09-09T10:06:46.910Z,3.70
2018-09-09T10:09:15.693Z,3.33
2018-09-09T10:11:44.225Z,2.93
2018-09-09T10:14:12.756Z,2.93
2018-09-09T10:16:41.280Z,15.07
2018-09-09T10:19:09.813Z,2.33
2018-09-09T10:21:38.386Z,2.80
2018-09-09T10:24:08.950Z,3.13
2018-09-09T10:26:37.504Z,2.50
2018-09-09T10:29:06.112Z,4.90
2018-09-09T10:31:34.608Z,5.83
2018-09-09T10:34:03.141Z,2.60
2018-09-09T10:36:31.670Z,3.27
2018-09-09T10:39:00.189Z,2.90
2018-09-09T10:41:28.897Z,3.80
2018-09-09T10:43:57.400Z,2.33
2018-09-09T10:46:25.990Z,4.03
2018-09-09T10:48:54.493Z,2.30
2018-09-09T10:51:23.021Z,6.27
2018-09-09T10:53:51.556Z,6.67
2018-09-09T10:56:21.131Z,2.37
2018-09-09T10:58:49.717Z,4.60
2018-09-09T11:01:18.248Z,2.90
2018-09-09T11:03:47.224Z,2.37
2018-09-09T11:06:15.803Z,3.63
2018-09-09T11:08:44.378Z,2.60
2018-09-09T11:11:13.822Z,2.70
2018-09-09T11:13:42.614Z,3.83
2018-09-09T11:16:11.192Z,2.37
2018-09-09T11:18:39.910Z,4.00
2018-09-09T11:21:08.402Z,3.03
2018-09-09T11:23:36.983Z,3.40
2018-09-09T11:26:05.547Z,2.83
2018-09-09T11:28:34.200Z,2.57
2018-09-09T11:31:02.771Z,4.03
2018-09-09T11:33:32.631Z,3.30
2018-09-09T11:36:01.279Z,2.07
2018-09-09T11:38:29.886Z,2.57
2018-09-09T11:40:58.614Z,3.63
2018-09-09T11:43:27.236Z,2.50
2018-09-09T11:45:55.821Z,2.30
2018-09-09T11:48:24.578Z,2.50
2018-09-09T11:50:53.294Z,4.87
2018-09-09T11:53:22.237Z,2.63
2018-09-09T11:55:50.924Z,7.10
2018-09-09T11:58:19.524Z,2.10
2018-09-09T12:00:48.985Z,2.10
2018-09-09T12:03:17.577Z,2.10
2018-09-09T12:05:46.154Z,2.20
2018-09-09T12:08:15.176Z,4.43
2018-09-09T12:10:43.777Z,2.10
2018-09-09T12:13:12.308Z,3.67
2018-09-09T12:15:40.848Z,2.87
2018-09-09T12:18:09.462Z,2.13
2018-09-09T12:20:38.074Z,7.03
2018-09-09T12:23:06.794Z,6.43
2018-09-09T12:25:35.357Z,8.63
2018-09-09T12:28:04.512Z,2.70
2018-09-09T12:30:33.185Z,2.73
2018-09-09T12:33:01.796Z,2.23
2018-09-09T12:35:30.418Z,2.27
2018-09-09T12:37:59.036Z,4.17
2018-09-09T12:40:27.580Z,2.00
2018-09-09T12:43:01.519Z,2.40
2018-09-09T12:45:35.357Z,2.10
2018-09-09T12:48:09.211Z,2.87
2018-09-09T12:50:37.857Z,3.43
2018-09-09T12:53:06.566Z,2.20
2018-09-09T12:55:35.194Z,2.87
2018-09-09T12:58:03.844Z,5.80
2018-09-09T13:00:32.457Z,1.97
2018-09-09T13:03:01.040Z,3.20
2018-09-09T13:05:29.572Z,2.70
2018-09-09T13:07:58.310Z,1.60
2018-09-09T13:10:26.949Z,2.27
2018-09-09T13:13:00.906Z,5.03
2018-09-09T13:15:29.433Z,2.47
2018-09-09T13:17:58.603Z,2.53
2018-09-09T13:20:27.108Z,3.70
2018-09-09T13:22:55.672Z,2.40
2018-09-09T13:25:24.229Z,2.60
2018-09-09T13:27:52.848Z,1.90
2018-09-09T13:30:21.391Z,2.50
2018-09-09T13:32:49.946Z,2.73
2018-09-09T13:35:18.513Z,2.80
2018-09-09T13:37:47.051Z,2.77
2018-09-09T13:40:15.602Z,2.07
2018-09-09T13:42:44.137Z,2.47
2018-09-09T13:45:12.712Z,4.50
2018-09-09T13:47:41.360Z,2.80
2018-09-09T13:50:10.253Z,2.90
2018-09-09T13:52:38.809Z,2.60
2018-09-09T13:55:07.593Z,2.27
2018-09-09T13:57:36.289Z,2.40
2018-09-09T14:00:04.966Z,2.33
2018-09-09T14:02:33.476Z,3.50
2018-09-09T14:05:02.028Z,1.97
2018-09-09T14:07:30.599Z,4.13
2018-09-09T14:09:59.147Z,5.00
2018-09-09T14:12:27.733Z,5.63
2018-09-09T14:14:56.301Z,4.40
2018-09-09T14:17:24.969Z,2.30
2018-09-09T14:19:53.757Z,5.50
2018-09-09T14:22:22.337Z,3.33
2018-09-09T14:24:50.989Z,2.60
2018-09-09T14:27:19.546Z,3.53
2018-09-09T14:29:48.090Z,4.10
2018-09-09T14:32:17.486Z,2.70
2018-09-09T14:34:46.072Z,2.40
2018-09-09T14:37:14.775Z,2.40
2018-09-09T14:39:43.285Z,2.33
2018-09-09T14:42:11.824Z,3.00
2018-09-09T14:44:40.370Z,2.30
2018-09-09T14:47:08.897Z,2.80
2018-09-09T14:49:37.528Z,3.43
2018-09-09T14:52:06.118Z,2.43
2018-09-09T14:54:34.708Z,3.27
2018-09-09T14:57:03.252Z,2.80
2018-09-09T14:59:31.799Z,3.03
2018-09-09T15:02:00.951Z,4.80
2018-09-09T15:04:29.480Z,3.43
2018-09-09T15:06:58.076Z,3.10
2018-09-09T15:09:26.584Z,2.80
2018-09-09T15:11:55.119Z,4.07
2018-09-09T15:14:23.624Z,4.80
2018-09-09T15:16:52.149Z,6.30
2018-09-09T15:19:20.704Z,3.83
2018-09-09T15:21:49.224Z,3.10
2018-09-09T15:24:17.733Z,4.03
2018-09-09T15:26:46.240Z,4.80
2018-09-09T15:29:14.721Z,4.90
2018-09-09T15:31:43.275Z,5.03
2018-09-09T15:34:11.890Z,3.00
2018-09-09T15:36:40.510Z,3.20
2018-09-09T15:39:09.397Z,2.50
2018-09-09T15:41:37.942Z,3.73
2018-09-09T15:44:06.467Z,2.80
2018-09-09T15:46:35.489Z,3.10
2018-09-09T15:49:04.065Z,3.43
2018-09-09T15:51:32.637Z,2.50
2018-09-09T15:54:01.198Z,4.13
2018-09-09T15:56:29.728Z,3.60
2018-09-09T15:58:58.269Z,3.40
2018-09-09T16:01:26.807Z,8.50
2018-09-09T16:03:55.305Z,3.13
2018-09-09T16:06:23.863Z,4.67
2018-09-09T16:08:52.377Z,3.83
2018-09-09T16:11:21.024Z,2.97
2018-09-09T16:13:49.595Z,3.83
2018-09-09T16:16:18.155Z,5.03
2018-09-09T16:18:46.749Z,3.40
2018-09-09T16:21:15.309Z,4.47
2018-09-09T16:23:43.904Z,3.67
2018-09-09T16:26:12.432Z,3.33
2018-09-09T16:28:40.963Z,5.20
2018-09-09T16:31:09.518Z,4.27
2018-09-09T16:33:38.038Z,2.90
2018-09-09T16:36:06.797Z,5.17
2018-09-09T16:38:35.351Z,3.33
2018-09-09T16:41:03.906Z,4.27
2018-09-09T16:43:32.505Z,2.80
2018-09-09T16:46:01.090Z,3.10
2018-09-09T16:48:29.745Z,3.63
2018-09-09T16:50:59.135Z,3.47
2018-09-09T16:53:27.654Z,3.23
2018-09-09T16:55:56.190Z,3.73
2018-09-09T16:58:24.715Z,3.80
2018-09-09T17:00:53.332Z,4.80
2018-09-09T17:03:21.950Z,3.23
2018-09-09T17:05:50.526Z,2.47
2018-09-09T17:08:19.127Z,2.73
2018-09-09T17:10:47.632Z,3.73
2018-09-09T17:13:18.087Z,6.47
2018-09-09T17:15:46.691Z,3.67
2018-09-09T17:18:15.322Z,3.13
2018-09-09T17:20:43.892Z,4.70
2018-09-09T17:23:12.411Z,3.40
2018-09-09T17:25:40.939Z,4.63
2018-09-09T17:28:09.606Z,3.90
2018-09-09T17:30:38.071Z,7.60
2018-09-09T17:33:07.379Z,7.13
2018-09-09T17:35:36.012Z,9.57
2018-09-09T17:38:04.555Z,21.63
2018-09-09T17:40:33.090Z,35.73
2018-09-09T17:43:02.017Z,27.87
2018-09-09T17:45:30.564Z,32.10
2018-09-09T17:47:59.359Z,19.27
2018-09-09T17:50:27.906Z,17.83
2018-09-09T17:52:56.820Z,9.10
2018-09-09T17:55:25.650Z,8.20
2018-09-09T17:57:54.183Z,7.53
2018-09-09T18:00:22.728Z,8.27
2018-09-09T18:02:51.263Z,14.40
2018-09-09T18:05:19.790Z,17.90
2018-09-09T18:07:48.452Z,12.47
2018-09-09T18:10:17.014Z,11.00
2018-09-09T18:12:45.524Z,8.53
2018-09-09T18:15:14.102Z,10.37
2018-09-09T18:17:42.617Z,9.10
2018-09-09T18:20:11.189Z,8.43
2018-09-09T18:22:39.748Z,11.70
2018-09-09T18:25:08.303Z,13.30
2018-09-09T18:27:36.882Z,18.23
2018-09-09T18:30:05.593Z,41.23
2018-09-09T18:32:34.159Z,32.80
2018-09-09T18:35:02.829Z,30.60
2018-09-09T18:37:31.345Z,19.80
2018-09-09T18:39:59.905Z,18.00
2018-09-09T18:42:28.467Z,14.87
2018-09-09T18:44:57.172Z,12.37
2018-09-09T18:47:25.751Z,13.43
2018-09-09T18:49:54.458Z,8.30
2018-09-09T18:52:23.098Z,7.33
2018-09-09T18:54:51.654Z,7.00
2018-09-09T18:57:20.173Z,9.93
2018-09-09T18:59:48.824Z,11.10
2018-09-09T19:02:17.405Z,11.63
2018-09-09T19:04:45.949Z,8.10
2018-09-09T19:07:14.492Z,6.90
2018-09-09T19:09:43.355Z,8.70
2018-09-09T19:12:12.105Z,11.03
2018-09-09T19:14:40.679Z,11.83
2018-09-09T19:17:09.204Z,11.87
2018-09-09T19:19:37.779Z,11.10
2018-09-09T19:22:06.314Z,14.10
2018-09-09T19:24:34.855Z,12.75
2018-09-09T19:27:03.464Z,11.28
2018-09-09T19:29:31.984Z,11.85
2018-09-09T19:32:00.552Z,9.90
2018-09-09T19:34:29.055Z,8.40
2018-09-09T19:36:57.585Z,8.40
2018-09-09T19:39:26.101Z,7.87
2018-09-09T19:41:54.674Z,8.13
2018-09-09T19:44:23.163Z,9.15
2018-09-09T19:46:51.753Z,9.68
2018-09-09T19:49:20.293Z,8.03
2018-09-09T19:51:48.850Z,7.40
2018-09-09T19:54:17.434Z,7.60
2018-09-09T19:56:46.000Z,8.23
2018-09-09T19:59:14.532Z,6.85
2018-09-09T20:01:43.121Z,7.75
2018-09-09T20:04:11.660Z,7.45
2018-09-09T20:06:40.217Z,8.08
2018-09-09T20:09:09.128Z,6.05
2018-09-09T20:11:38.067Z,7.58
2018-09-09T20:14:07.127Z,7.60
2018-09-09T20:16:35.702Z,9.10
2018-09-09T20:19:04.371Z,10.58
2018-09-09T20:21:32.897Z,6.95
2018-09-09T20:24:01.858Z,13.13
2018-09-09T20:26:30.452Z,8.10
2018-09-09T20:28:58.989Z,15.70
2018-09-09T20:31:27.539Z,5.95
2018-09-09T20:33:56.060Z,8.70
2018-09-09T20:36:24.600Z,9.40
2018-09-09T20:38:53.291Z,11.48
2018-09-09T20:41:21.802Z,12.70
2018-09-09T20:43:50.382Z,8.50
2018-09-09T20:46:18.896Z,6.20
2018-09-09T20:48:47.469Z,6.20
2018-09-09T20:51:16.340Z,7.47
2018-09-09T20:53:44.875Z,7.90
2018-09-09T20:56:13.404Z,8.28
2018-09-09T20:58:41.937Z,6.47
2018-09-09T21:01:10.501Z,11.57
2018-09-09T21:03:39.060Z,6.60
2018-09-09T21:06:07.575Z,6.92
2018-09-09T21:08:36.076Z,6.20
2018-09-09T21:11:04.656Z,8.58
2018-09-09T21:13:33.230Z,6.53
2018-09-09T21:16:01.752Z,6.90
2018-09-09T21:18:30.312Z,5.92
2018-09-09T21:20:58.845Z,5.80
2018-09-09T21:23:27.376Z,10.85
2018-09-09T21:25:55.915Z,6.03
2018-09-09T21:28:24.466Z,6.08
2018-09-09T21:30:53.063Z,5.42
2018-09-09T21:33:21.631Z,6.50
2018-09-09T21:35:50.198Z,5.22
2018-09-09T21:38:18.752Z,6.37
2018-09-09T21:40:47.270Z,9.13
2018-09-09T21:43:15.810Z,8.43
2018-09-09T21:45:44.423Z,13.80
2018-09-09T21:48:12.952Z,7.40
2018-09-09T21:50:41.459Z,5.55
2018-09-09T21:53:09.959Z,8.85
2018-09-09T21:55:38.484Z,6.33
2018-09-09T21:58:07.011Z,7.30
2018-09-09T22:00:39.830Z,7.85
2018-09-09T22:03:08.357Z,7.17
2018-09-09T22:05:36.886Z,6.58
2018-09-09T22:08:05.495Z,7.03
2018-09-09T22:10:34.004Z,7.40
2018-09-09T22:13:02.547Z,5.20
2018-09-09T22:15:31.078Z,5.65
2018-09-09T22:17:59.693Z,4.97
2018-09-09T22:20:28.216Z,5.42
2018-09-09T22:22:56.726Z,5.50
2018-09-09T22:25:25.262Z,5.20
2018-09-09T22:27:53.825Z,5.25
2018-09-09T22:30:22.366Z,5.30
2018-09-09T22:32:50.900Z,6.20
2018-09-09T22:35:19.458Z,5.45
2018-09-09T22:37:47.976Z,11.00
2018-09-09T22:40:16.485Z,4.85
2018-09-09T22:42:45.024Z,11.18
2018-09-09T22:45:13.548Z,5.33
2018-09-09T22:47:42.056Z,5.78
2018-09-09T22:50:10.578Z,5.20
2018-09-09T22:52:39.128Z,4.90
2018-09-09T22:55:07.677Z,7.37
2018-09-09T22:57:36.200Z,6.85
2018-09-09T23:00:05.282Z,5.25
2018-09-09T23:02:33.873Z,4.87
2018-09-09T23:05:02.483Z,4.92
2018-09-09T23:07:30.999Z,11.50
2018-09-09T23:09:59.522Z,6.05
2018-09-09T23:12:28.066Z,5.95
2018-09-09T23:14:56.611Z,7.08
2018-09-09T23:17:25.155Z,5.70
2018-09-09T23:19:53.682Z,6.85
2018-09-09T23:22:22.202Z,6.67
2018-09-09T23:24:50.698Z,5.10
2018-09-09T23:27:19.247Z,10.23
2018-09-09T23:29:47.799Z,8.13
2018-09-09T23:32:16.297Z,5.03
2018-09-09T23:34:44.827Z,6.97
2018-09-09T23:37:13.347Z,8.63
2018-09-09T23:39:41.856Z,5.58
2018-09-09T23:42:10.400Z,5.10
2018-09-09T23:44:38.895Z,6.25
2018-09-09T23:47:07.442Z,10.08
2018-09-09T23:49:35.964Z,4.72
2018-09-09T23:52:04.534Z,4.90
2018-09-09T23:54:33.058Z,5.47
2018-09-09T23:57:01.654Z,10.23
2018-09-09T23:59:30.160Z,6.15
